Time;durP1;ratioP1;P1;durP2;ratioP2;P2;SDS_P1;SDS_P2;PMS_P1;PMS_P2;Temp;Humidity;BMP_temperature;BMP_pressure;BME280_temperature;BME280_humidity;BME280_pressure;Samples;Min_cycle;Max_cycle;Signal;HPM_P1;HPM_P2
2023/04/12 00:01:55;;;;;;;16.80;9.20;;;;;;;11.97;93.82;99832.25;105983;1256;64618;-81
2023/04/12 00:04:27;;;;;;;17.80;9.80;;;;;;;11.94;93.78;99830.70;106268;1254;73382;-82
2023/04/12 00:06:56;;;;;;;13.70;8.60;;;;;;;11.92;94.15;99832.61;106002;1257;60449;-85
2023/04/12 00:09:29;;;;;;;13.40;8.80;;;;;;;11.91;94.25;99830.80;105891;1258;61043;-82
2023/04/12 00:11:58;;;;;;;10.30;7.80;;;;;;;11.88;94.31;99831.17;105814;1252;74784;-85
2023/04/12 00:14:26;;;;;;;12.00;7.90;;;;;;;11.85;94.42;99830.00;105998;1257;64596;-82
2023/04/12 00:17:00;;;;;;;11.50;8.00;;;;;;;11.80;94.62;99825.98;106423;1254;73999;-81
2023/04/12 00:19:29;;;;;;;11.90;7.30;;;;;;;11.78;95.17;99826.85;109039;1253;62564;-80
2023/04/12 00:22:05;;;;;;;10.80;7.40;;;;;;;11.78;95.36;99828.25;107342;1254;60648;-82
2023/04/12 00:24:34;;;;;;;11.90;7.30;;;;;;;11.78;95.55;99824.21;106314;1257;74521;-85
2023/04/12 00:27:04;;;;;;;12.40;7.80;;;;;;;11.78;95.64;99824.19;105959;1260;63874;-82
2023/04/12 00:29:34;;;;;;;12.60;7.90;;;;;;;11.79;95.88;99820.23;105874;1255;73569;-81
2023/04/12 00:32:04;;;;;;;15.30;8.30;;;;;;;11.81;95.68;99815.58;105928;1254;61217;-82
2023/04/12 00:34:33;;;;;;;13.70;7.70;;;;;;;11.82;95.55;99814.81;105819;1254;60435;-82
2023/04/12 00:37:01;;;;;;;15.60;8.30;;;;;;;11.79;95.44;99813.79;105969;1256;74832;-83
2023/04/12 00:39:30;;;;;;;12.00;7.70;;;;;;;11.75;95.43;99813.61;105949;1257;63469;-83
2023/04/12 00:42:03;;;;;;;11.40;7.70;;;;;;;11.70;95.59;99807.33;105938;1255;73774;-83
2023/04/12 00:44:34;;;;;;;10.10;7.70;;;;;;;11.67;96.06;99806.86;106197;1256;62714;-84
2023/04/12 00:47:03;;;;;;;10.50;8.70;;;;;;;11.69;96.40;99805.81;105903;1254;60445;-82
2023/04/12 00:49:32;;;;;;;13.90;7.80;;;;;;;11.72;96.45;99800.36;105859;1256;75662;-82
2023/04/12 00:52:03;;;;;;;14.40;8.00;;;;;;;11.74;96.43;99802.11;105782;1254;64998;-83
2023/04/12 00:54:32;;;;;;;14.00;8.10;;;;;;;11.75;96.38;99798.50;105954;1254;72295;-84
2023/04/12 00:57:01;;;;;;;13.00;9.20;;;;;;;11.77;96.55;99797.10;106005;1254;62961;-83
2023/04/12 00:59:30;;;;;;;19.90;11.60;;;;;;;11.81;96.21;99795.55;105871;1257;61931;-81
2023/04/12 01:01:58;;;;;;;21.80;10.50;;;;;;;11.80;95.72;99790.13;106010;1257;74814;-82
2023/04/12 01:04:28;;;;;;;19.10;10.70;;;;;;;11.74;95.51;99785.69;106199;1254;63607;-84
2023/04/12 01:07:16;;;;;;;15.20;10.10;;;;;;;11.68;95.50;99786.79;105769;1257;73386;-84
2023/04/12 01:10:00;;;;;;;20.60;11.30;;;;;;;11.62;95.69;99784.48;105931;1256;62995;-84
2023/04/12 01:12:51;;;;;;;18.00;10.80;;;;;;;11.57;95.76;99781.02;106024;1256;60505;-82
2023/04/12 01:15:23;;;;;;;20.60;11.10;;;;;;;11.50;95.85;99774.62;105891;1252;73818;-84
2023/04/12 01:18:04;;;;;;;17.70;11.70;;;;;;;11.45;96.58;99773.19;105734;1258;65688;-84
2023/04/12 01:20:47;;;;;;;12.10;9.80;;;;;;;11.45;96.59;99775.34;105816;1257;73340;-83
2023/04/12 01:23:22;;;;;;;19.30;11.30;;;;;;;11.42;96.48;99766.07;106336;1254;61638;-81
2023/04/12 01:26:03;;;;;;;18.00;9.20;;;;;;;11.41;96.63;99765.41;108824;1257;60738;-81
2023/04/12 01:28:32;;;;;;;14.00;9.00;;;;;;;11.41;96.64;99763.51;106521;1254;74207;-81
2023/04/12 01:31:01;;;;;;;11.50;7.30;;;;;;;11.39;96.53;99758.95;105935;1260;65619;-83
2023/04/12 01:33:30;;;;;;;14.20;8.20;;;;;;;11.35;96.55;99755.77;105714;1259;73677;-80
2023/04/12 01:35:59;;;;;;;11.50;7.50;;;;;;;11.30;96.77;99752.61;105804;1259;61561;-83
2023/04/12 01:38:28;;;;;;;9.70;6.60;;;;;;;11.29;96.86;99752.73;105760;1254;60914;-82
2023/04/12 01:40:56;;;;;;;11.20;7.00;;;;;;;11.25;96.87;99744.78;105766;1260;73871;-83
2023/04/12 01:43:25;;;;;;;12.60;7.30;;;;;;;11.23;97.02;99742.33;105850;1260;64674;-82
2023/04/12 01:45:56;;;;;;;11.70;6.20;;;;;;;11.19;96.91;99740.18;105837;1254;73646;-82
2023/04/12 01:48:27;;;;;;;11.00;6.30;;;;;;;11.14;97.10;99737.41;105721;1254;62906;-83
2023/04/12 01:51:01;;;;;;;10.70;5.50;;;;;;;11.12;97.52;99736.52;105781;1254;60453;-82
2023/04/12 01:53:47;;;;;;;6.80;4.90;;;;;;;11.12;97.67;99730.59;105780;1257;74824;-83
2023/04/12 01:56:17;;;;;;;11.80;5.40;;;;;;;11.09;97.73;99727.31;105561;1258;64907;-83
2023/04/12 01:58:46;;;;;;;7.30;4.90;;;;;;;11.06;97.82;99729.66;105681;1258;73713;-83
2023/04/12 02:01:15;;;;;;;8.50;5.30;;;;;;;11.03;98.01;99725.86;105775;1258;62897;-80
2023/04/12 02:03:44;;;;;;;9.90;5.40;;;;;;;11.02;98.16;99727.30;105950;1254;61391;-82
2023/04/12 02:06:13;;;;;;;7.00;4.70;;;;;;;11.02;98.41;99724.52;105720;1255;74603;-83
2023/04/12 02:08:47;;;;;;;6.70;4.70;;;;;;;11.04;98.46;99722.28;105698;1254;65049;-84
2023/04/12 02:11:16;;;;;;;8.80;5.10;;;;;;;11.04;98.46;99719.46;105721;1255;74930;-86
2023/04/12 02:13:44;;;;;;;8.40;5.60;;;;;;;11.04;98.71;99715.63;105873;1254;62989;-84
2023/04/12 02:16:13;;;;;;;7.70;5.00;;;;;;;11.06;99.01;99714.05;105858;1254;60438;-81
2023/04/12 02:18:41;;;;;;;15.40;6.00;;;;;;;11.07;98.74;99711.04;105913;1258;75025;-82
2023/04/12 02:21:10;;;;;;;11.30;6.40;;;;;;;11.06;98.93;99709.86;105759;1257;64552;-83
2023/04/12 02:23:42;;;;;;;8.60;6.00;;;;;;;11.09;99.03;99709.29;105803;1257;73770;-86
2023/04/12 02:26:11;;;;;;;11.40;7.20;;;;;;;11.08;98.82;99707.60;105901;1254;61091;-83
2023/04/12 02:28:40;;;;;;;13.40;7.10;;;;;;;11.04;98.98;99707.92;105901;1256;61227;-82
2023/04/12 02:31:15;;;;;;;9.20;7.00;;;;;;;11.02;98.97;99707.23;107355;1255;74891;-80
2023/04/12 02:33:46;;;;;;;14.60;7.70;;;;;;;10.98;99.00;99702.78;107614;1254;62730;-83
2023/04/12 02:36:14;;;;;;;10.80;7.30;;;;;;;10.96;99.14;99699.96;106103;1254;73719;-81
2023/04/12 02:38:44;;;;;;;14.00;8.30;;;;;;;10.94;99.10;99700.29;105791;1256;63123;-84
2023/04/12 02:41:17;;;;;;;12.30;7.60;;;;;;;10.92;99.43;99695.86;105624;1254;61350;-84
2023/04/12 02:43:45;;;;;;;19.80;9.50;;;;;;;10.92;99.58;99691.31;105819;1257;74800;-85
2023/04/12 02:46:22;;;;;;;14.40;7.50;;;;;;;10.93;99.84;99692.98;105966;1253;63765;-84
2023/04/12 02:48:55;;;;;;;13.50;8.40;;;;;;;10.95;99.83;99688.31;105949;1255;73976;-82
2023/04/12 02:51:31;;;;;;;14.30;8.30;;;;;;;10.96;99.90;99690.69;105974;1257;61555;-85
2023/04/12 02:54:02;;;;;;;11.70;7.20;;;;;;;10.97;99.75;99688.68;105685;1253;61381;-83
2023/04/12 02:56:39;;;;;;;11.70;7.50;;;;;;;10.96;99.78;99692.62;105820;1256;75108;-82
2023/04/12 02:59:21;;;;;;;15.30;8.80;;;;;;;10.93;99.91;99686.53;105686;1257;64570;-82
2023/04/12 03:02:10;;;;;;;18.90;7.90;;;;;;;10.95;100.00;99685.47;105889;1254;73621;-83
2023/04/12 03:04:39;;;;;;;17.10;8.40;;;;;;;10.99;100.00;99683.41;105804;1254;63335;-85
2023/04/12 03:07:12;;;;;;;18.70;9.00;;;;;;;11.02;100.00;99681.64;106009;1254;61062;-83
2023/04/12 03:09:48;;;;;;;18.30;8.70;;;;;;;11.05;99.99;99682.31;106048;1253;74789;-85
2023/04/12 03:12:17;;;;;;;13.40;7.60;;;;;;;11.05;99.94;99684.96;105851;1253;64161;-85
2023/04/12 03:14:57;;;;;;;16.20;7.80;;;;;;;11.06;99.73;99681.58;105731;1257;73634;-83
2023/04/12 03:17:27;;;;;;;10.90;7.00;;;;;;;11.04;99.41;99679.06;105984;1254;62976;-86
2023/04/12 03:19:57;;;;;;;13.00;7.20;;;;;;;10.99;99.35;99680.30;105741;1254;61369;-85
2023/04/12 03:22:29;;;;;;;17.70;7.60;;;;;;;10.98;99.78;99680.53;105807;1258;72947;-88
2023/04/12 03:25:00;;;;;;;13.30;6.20;;;;;;;10.99;99.59;99682.09;106072;1257;64851;-85
2023/04/12 03:27:29;;;;;;;11.60;7.10;;;;;;;10.96;99.37;99682.25;105676;1258;73495;-85
2023/04/12 03:30:00;;;;;;;17.10;7.10;;;;;;;10.94;99.43;99680.34;105728;1257;62893;-84
2023/04/12 03:32:32;;;;;;;11.80;6.50;;;;;;;10.95;99.90;99677.50;105768;1253;61094;-84
2023/04/12 03:35:00;;;;;;;12.20;6.10;;;;;;;11.00;99.91;99676.77;105837;1257;73971;-82
2023/04/12 03:37:29;;;;;;;17.30;7.10;;;;;;;11.02;99.61;99678.36;108248;1254;64762;-82
2023/04/12 03:39:58;;;;;;;16.10;7.80;;;;;;;11.01;99.65;99682.43;108108;1254;72334;-85
2023/04/12 03:42:29;;;;;;;9.40;6.00;;;;;;;11.03;99.66;99682.30;106517;1254;61987;-81
2023/04/12 03:45:15;;;;;;;11.10;6.90;;;;;;;11.03;99.47;99686.17;105847;1256;60438;-84
2023/04/12 03:47:48;;;;;;;11.20;6.90;;;;;;;11.03;99.53;99688.58;105946;1253;74874;-82
2023/04/12 03:50:18;;;;;;;13.30;7.10;;;;;;;11.03;99.51;99689.83;105872;1257;63462;-85
2023/04/12 03:52:53;;;;;;;12.70;7.10;;;;;;;11.03;99.51;99691.61;105991;1253;73557;-83
2023/04/12 03:55:24;;;;;;;15.00;7.30;;;;;;;11.01;99.53;99692.61;105831;1257;62892;-86
2023/04/12 03:57:53;;;;;;;14.10;6.90;;;;;;;10.98;99.30;99694.73;105765;1253;61698;-85
2023/04/12 04:00:22;;;;;;;11.30;7.40;;;;;;;10.95;99.25;99692.53;105878;1258;74812;-82
2023/04/12 04:03:08;;;;;;;17.30;7.30;;;;;;;10.92;99.26;99690.07;105703;1257;63777;-86
2023/04/12 04:05:46;;;;;;;11.40;6.60;;;;;;;10.94;99.52;99690.86;105760;1260;73653;-82
2023/04/12 04:08:17;;;;;;;12.80;7.20;;;;;;;10.95;99.42;99693.20;105906;1256;62769;-84
2023/04/12 04:10:54;;;;;;;15.40;6.90;;;;;;;10.95;99.36;99691.09;106291;1254;60948;-83
2023/04/12 04:13:32;;;;;;;11.90;7.90;;;;;;;10.94;99.44;99690.49;105778;1253;73788;-83
2023/04/12 04:16:05;;;;;;;8.00;5.80;;;;;;;10.92;99.48;99690.27;105991;1256;65344;-86
2023/04/12 04:18:34;;;;;;;10.60;6.00;;;;;;;10.91;99.57;99695.59;105886;1257;73794;-83
2023/04/12 04:21:08;;;;;;;10.90;6.00;;;;;;;10.90;99.63;99693.38;105990;1260;62787;-83
2023/04/12 04:23:37;;;;;;;10.90;6.80;;;;;;;10.92;99.74;99694.52;105950;1254;61367;-85
2023/04/12 04:26:09;;;;;;;9.30;5.90;;;;;;;10.93;99.66;99692.30;105786;1257;74976;-84
2023/04/12 04:28:46;;;;;;;13.00;6.30;;;;;;;10.94;99.79;99690.98;105961;1254;63760;-84
2023/04/12 04:31:17;;;;;;;13.00;6.10;;;;;;;10.96;99.90;99691.38;105964;1254;73677;-82
2023/04/12 04:33:49;;;;;;;10.60;6.20;;;;;;;10.98;99.92;99687.34;105864;1256;62073;-82
2023/04/12 04:36:20;;;;;;;12.70;7.00;;;;;;;11.01;99.89;99683.30;105868;1254;61132;-85
2023/04/12 04:38:57;;;;;;;15.10;6.80;;;;;;;11.03;99.80;99686.31;105954;1255;73948;-85
2023/04/12 04:41:38;;;;;;;11.40;6.40;;;;;;;11.05;99.88;99685.99;105979;1254;63877;-84
2023/04/12 04:44:09;;;;;;;;;;;;;;;11.06;99.81;99681.90;108824;1254;73806;-82
2023/04/12 04:46:42;;;;;;;12.00;6.20;;;;;;;11.08;99.81;99685.45;107971;1253;62025;-85
2023/04/12 04:49:13;;;;;;;13.70;6.40;;;;;;;11.09;99.68;99688.79;106385;1253;60434;-86
2023/04/12 04:51:42;;;;;;;11.40;6.50;;;;;;;11.11;99.45;99684.66;105849;1256;73937;-84
2023/04/12 04:54:12;;;;;;;12.50;6.30;;;;;;;11.11;99.37;99689.16;105979;1254;63891;-84
2023/04/12 04:56:43;;;;;;;12.40;6.80;;;;;;;11.10;99.17;99684.58;105815;1257;73648;-84
2023/04/12 04:59:16;;;;;;;13.70;6.80;;;;;;;11.09;99.36;99685.98;105823;1254;62896;-86
2023/04/12 05:01:45;;;;;;;13.20;5.70;;;;;;;11.10;99.43;99685.93;105858;1254;60463;-86
2023/04/12 05:04:19;;;;;;;13.70;7.00;;;;;;;11.13;99.60;99687.66;105780;1254;74816;-84
2023/04/12 05:06:48;;;;;;;12.00;7.10;;;;;;;11.18;99.56;99680.46;105785;1257;64798;-84
2023/04/12 05:09:19;;;;;;;11.70;6.60;;;;;;;11.22;99.61;99686.08;106022;1254;73689;-84
2023/04/12 05:12:01;;;;;;;15.50;6.90;;;;;;;11.27;99.39;99685.52;105862;1256;62988;-86
2023/04/12 05:14:30;;;;;;;13.60;7.90;;;;;;;11.28;99.02;99684.08;105859;1254;61364;-83
2023/04/12 05:17:14;;;;;;;14.10;7.30;;;;;;;11.28;98.88;99688.77;105711;1254;74743;-84
2023/04/12 05:19:44;;;;;;;12.40;7.10;;;;;;;11.27;98.79;99687.30;105957;1256;63878;-87
2023/04/12 05:22:13;;;;;;;11.60;7.30;;;;;;;11.24;98.73;99683.62;105892;1254;73833;-84
2023/04/12 05:24:42;;;;;;;15.00;7.30;;;;;;;11.22;98.62;99685.39;105799;1257;63573;-85
2023/04/12 05:27:12;;;;;;;11.20;6.60;;;;;;;11.18;98.77;99680.80;105855;1253;61242;-84
2023/04/12 05:29:42;;;;;;;12.50;8.10;;;;;;;11.16;98.77;99679.02;105982;1253;74551;-84
2023/04/12 05:32:12;;;;;;;14.10;7.40;;;;;;;11.12;99.06;99681.05;105759;1252;65404;-83
2023/04/12 05:34:43;;;;;;;15.20;7.70;;;;;;;11.10;99.37;99676.47;105760;1254;73487;-85
2023/04/12 05:37:11;;;;;;;17.80;8.70;;;;;;;11.11;99.74;99674.51;105830;1257;62004;-87
2023/04/12 05:39:47;;;;;;;10.80;7.40;;;;;;;11.12;99.91;99673.56;105849;1254;61357;-87
2023/04/12 05:42:18;;;;;;;15.20;7.50;;;;;;;11.13;99.99;99670.84;105813;1257;75031;-86
2023/04/12 05:44:48;;;;;;;8.00;6.50;;;;;;;11.16;99.99;99665.56;105872;1257;65412;-83
2023/04/12 05:47:17;;;;;;;12.60;6.60;;;;;;;11.15;100.00;99663.48;105938;1254;72647;-85
2023/04/12 05:49:47;;;;;;;10.50;5.70;;;;;;;11.18;100.00;99663.11;107699;1254;63687;-82
2023/04/12 05:52:20;;;;;;;11.90;7.00;;;;;;;11.19;100.00;99659.89;106956;1253;60951;-84
2023/04/12 05:54:51;;;;;;;11.10;6.90;;;;;;;11.18;100.00;99655.77;106535;1254;74792;-83
2023/04/12 05:57:20;;;;;;;13.30;5.80;;;;;;;11.22;100.00;99658.42;105936;1256;64819;-85
2023/04/12 05:59:49;;;;;;;12.90;7.00;;;;;;;11.27;100.00;99660.53;105808;1254;74041;-85
2023/04/12 06:02:18;;;;;;;10.60;6.10;;;;;;;11.28;100.00;99659.73;105835;1257;62685;-85
2023/04/12 06:04:48;;;;;;;11.40;6.90;;;;;;;11.28;100.00;99660.73;105940;1254;61233;-83
2023/04/12 06:07:20;;;;;;;9.30;6.70;;;;;;;11.32;100.00;99656.79;105903;1253;74925;-86
2023/04/12 06:09:49;;;;;;;14.90;7.60;;;;;;;11.35;100.00;99659.14;105836;1253;63620;-85
2023/04/12 06:12:17;;;;;;;12.30;6.30;;;;;;;11.38;100.00;99658.20;105783;1253;72614;-83
2023/04/12 06:14:48;;;;;;;11.40;7.80;;;;;;;11.41;100.00;99658.19;105996;1254;62996;-86
2023/04/12 06:17:17;;;;;;;13.90;7.70;;;;;;;11.44;100.00;99658.11;105823;1254;60495;-84
2023/04/12 06:19:49;;;;;;;13.90;6.80;;;;;;;11.44;100.00;99655.63;106316;1254;74837;-86
2023/04/12 06:22:18;;;;;;;13.00;7.00;;;;;;;11.44;100.00;99653.20;106553;1253;64782;-84
2023/04/12 06:24:47;;;;;;;11.70;6.50;;;;;;;11.46;100.00;99654.28;108147;1253;73653;-84
2023/04/12 06:27:21;;;;;;;12.80;7.70;;;;;;;11.54;100.00;99657.33;106736;1257;61647;-86
2023/04/12 06:29:51;;;;;;;9.00;5.30;;;;;;;11.57;100.00;99653.73;106172;1253;61039;-85
2023/04/12 06:32:20;;;;;;;10.80;5.50;;;;;;;11.56;100.00;99651.38;105817;1257;74810;-86
2023/04/12 06:34:48;;;;;;;10.40;5.10;;;;;;;11.52;100.00;99653.83;106561;1257;64869;-85
2023/04/12 06:37:17;;;;;;;8.90;5.00;;;;;;;11.53;100.00;99655.26;105960;1257;73648;-87
2023/04/12 06:42:52;;;;;;;6.90;4.70;;;;;;;11.58;100.00;99656.78;103385;1283;613796;-86
2023/04/12 06:45:22;;;;;;;10.60;6.30;;;;;;;11.56;100.00;99653.08;105794;1264;60367;-86
2023/04/12 06:47:49;;;;;;;10.50;6.10;;;;;;;11.58;100.00;99657.33;105106;1264;61394;-88
2023/04/12 06:50:17;;;;;;;7.90;4.90;;;;;;;11.56;100.00;99655.36;105024;1267;73253;-86
2023/04/12 06:52:48;;;;;;;9.30;5.90;;;;;;;11.51;100.00;99660.84;105980;1257;64711;-87
2023/04/12 06:55:17;;;;;;;8.20;5.90;;;;;;;11.44;100.00;99657.20;106747;1250;626182;-85
2023/04/12 06:57:44;;;;;;;10.30;5.10;;;;;;;11.39;100.00;99655.31;108668;1250;62078;-85
2023/04/12 07:00:18;;;;;;;;;;;;;;;11.36;100.00;99653.11;106281;1251;60174;-84
2023/04/12 07:02:45;;;;;;;12.30;5.90;;;;;;;11.37;100.00;99651.43;106206;1251;73160;-85
2023/04/12 07:05:12;;;;;;;9.80;5.90;;;;;;;11.39;100.00;99649.40;106199;1251;64897;-84
2023/04/12 07:07:40;;;;;;;8.70;4.90;;;;;;;11.39;100.00;99652.34;106036;1251;73815;-86
2023/04/12 07:10:08;;;;;;;9.90;5.10;;;;;;;11.38;100.00;99653.98;105870;1254;62921;-85
2023/04/12 07:12:35;;;;;;;9.20;5.70;;;;;;;11.36;100.00;99646.44;106031;1254;60633;-85
2023/04/12 07:15:05;;;;;;;7.90;4.70;;;;;;;11.39;100.00;99650.12;106035;1251;74005;-86
2023/04/12 07:17:35;;;;;;;11.00;6.00;;;;;;;11.38;100.00;99650.65;106109;1254;63540;-86
2023/04/12 07:20:02;;;;;;;11.10;4.80;;;;;;;11.38;100.00;99646.30;105846;1257;73643;-84
2023/04/12 07:22:33;;;;;;;13.90;6.30;;;;;;;11.37;100.00;99649.67;105840;1253;63039;-84
2023/04/12 07:25:01;;;;;;;9.50;6.10;;;;;;;11.38;100.00;99645.27;106095;1250;61420;-87
2023/04/12 07:27:28;;;;;;;10.00;5.60;;;;;;;11.39;100.00;99647.61;105951;1252;73806;-85
2023/04/12 07:29:57;;;;;;;8.90;6.80;;;;;;;11.37;100.00;99651.45;106189;1253;64779;-84
2023/04/12 07:32:26;;;;;;;13.30;7.70;;;;;;;11.35;100.00;99648.14;105929;1251;72966;-87
2023/04/12 07:34:56;;;;;;;10.50;6.70;;;;;;;11.39;100.00;99650.05;105950;1254;63627;-86
2023/04/12 07:37:25;;;;;;;11.00;6.80;;;;;;;11.44;100.00;99655.98;106048;1251;61328;-86
2023/04/12 07:39:52;;;;;;;12.80;7.10;;;;;;;11.45;100.00;99653.16;106123;1251;73064;-84
2023/04/12 07:42:21;;;;;;;18.00;8.40;;;;;;;11.44;100.00;99652.22;106353;1254;63725;-84
2023/04/12 07:44:48;;;;;;;12.50;7.80;;;;;;;11.44;100.00;99658.52;106167;1254;72514;-85
2023/04/12 07:47:15;;;;;;;9.20;7.90;;;;;;;11.43;100.00;99657.30;106770;1253;61829;-82
2023/04/12 07:49:42;;;;;;;12.10;8.20;;;;;;;11.45;100.00;99658.34;106302;1254;60240;-85
2023/04/12 07:52:09;;;;;;;14.50;8.60;;;;;;;11.47;100.00;99658.20;106145;1254;73079;-86
2023/04/12 07:54:36;;;;;;;11.90;7.90;;;;;;;11.49;100.00;99658.91;105987;1256;63653;-85
2023/04/12 07:57:03;;;;;;;11.10;7.40;;;;;;;11.50;100.00;99657.13;105834;1251;72524;-86
2023/04/12 07:59:30;;;;;;;10.30;8.20;;;;;;;11.52;100.00;99655.21;107181;1251;61912;-85
2023/04/12 08:02:02;;;;;;;9.30;6.80;;;;;;;11.57;100.00;99649.73;108426;1251;60068;-87
2023/04/12 08:04:29;;;;;;;8.20;6.90;;;;;;;11.64;100.00;99654.97;107481;1251;74110;-85
2023/04/12 08:06:56;;;;;;;10.20;6.60;;;;;;;11.65;100.00;99651.38;106601;1251;63616;-85
2023/04/12 08:09:23;;;;;;;11.00;7.90;;;;;;;11.66;100.00;99649.71;106123;1251;72455;-87
2023/04/12 08:11:50;;;;;;;14.50;10.60;;;;;;;11.68;100.00;99650.98;105784;1253;62736;-85
2023/04/12 08:14:26;;;;;;;8.80;6.50;;;;;;;11.71;100.00;99652.27;106362;1251;61318;-88
2023/04/12 08:16:54;;;;;;;15.30;7.10;;;;;;;11.75;100.00;99651.79;106198;1252;74019;-85
2023/04/12 08:19:21;;;;;;;9.40;7.20;;;;;;;11.75;100.00;99645.81;106096;1256;63829;-84
2023/04/12 08:21:52;;;;;;;8.20;7.00;;;;;;;11.77;100.00;99644.65;105751;1251;73781;-84
2023/04/12 08:24:22;;;;;;;10.70;7.80;;;;;;;11.77;100.00;99641.08;105884;1253;62998;-82
2023/04/12 08:26:50;;;;;;;8.20;6.60;;;;;;;11.77;100.00;99642.71;106621;1251;61026;-85
2023/04/12 08:29:17;;;;;;;12.10;7.20;;;;;;;11.75;100.00;99640.42;106166;1251;74021;-85
2023/04/12 08:31:44;;;;;;;10.80;6.80;;;;;;;11.74;100.00;99636.78;106062;1254;64584;-84
2023/04/12 08:34:11;;;;;;;11.00;7.40;;;;;;;11.77;100.00;99635.69;105841;1257;73603;-84
2023/04/12 08:36:39;;;;;;;7.20;6.10;;;;;;;11.80;100.00;99633.15;106229;1251;62971;-85
2023/04/12 08:39:06;;;;;;;8.50;7.00;;;;;;;11.84;100.00;99633.35;105977;1251;61216;-85
2023/04/12 08:41:34;;;;;;;12.30;6.70;;;;;;;11.87;100.00;99629.16;105885;1251;73796;-88
2023/04/12 08:44:04;;;;;;;8.10;7.00;;;;;;;11.90;100.00;99636.59;105961;1252;63784;-85
2023/04/12 08:46:35;;;;;;;13.30;9.00;;;;;;;11.90;100.00;99627.30;105903;1251;73121;-85
2023/04/12 08:49:02;;;;;;;9.30;6.70;;;;;;;11.93;100.00;99627.58;107119;1251;61704;-85
2023/04/12 08:51:31;;;;;;;6.90;5.70;;;;;;;11.95;100.00;99632.70;106156;1253;61387;-87
2023/04/12 08:53:57;;;;;;;8.00;4.80;;;;;;;11.93;100.00;99629.50;105735;1258;74160;-86
2023/04/12 08:56:31;;;;;;;9.00;5.70;;;;;;;11.94;100.00;99631.91;107396;1251;64872;-83
2023/04/12 08:58:59;;;;;;;8.70;6.00;;;;;;;11.96;100.00;99632.94;107413;1254;72514;-82
2023/04/12 09:01:26;;;;;;;12.10;9.00;;;;;;;11.98;100.00;99633.82;106807;1254;60646;-86
2023/04/12 09:03:58;;;;;;;19.90;14.30;;;;;;;11.97;100.00;99631.62;106723;1251;61388;-84
2023/04/12 09:06:26;;;;;;;23.70;15.10;;;;;;;11.97;100.00;99636.37;107069;1251;73890;-84
2023/04/12 09:08:54;;;;;;;20.00;14.10;;;;;;;11.95;100.00;99632.52;106316;1252;63903;-84
2023/04/12 09:11:29;;;;;;;12.60;9.50;;;;;;;11.95;100.00;99632.33;106632;1251;73635;-86
2023/04/12 09:13:58;;;;;;;13.70;9.10;;;;;;;11.97;100.00;99632.89;106373;1253;62887;-85
2023/04/12 09:16:38;;;;;;;11.00;8.80;;;;;;;11.99;100.00;99632.36;106052;1251;61487;-86
2023/04/12 09:19:11;;;;;;;14.40;10.40;;;;;;;12.04;100.00;99631.04;105947;1251;73996;-87
2023/04/12 09:21:54;;;;;;;13.80;8.60;;;;;;;12.09;100.00;99630.14;105928;1251;64750;-85
2023/04/12 09:24:24;;;;;;;11.30;9.00;;;;;;;12.11;100.00;99630.87;106110;1251;72677;-84
2023/04/12 09:27:03;;;;;;;12.50;10.50;;;;;;;12.13;100.00;99625.46;106104;1254;62997;-86
2023/04/12 09:29:30;;;;;;;15.40;9.40;;;;;;;12.19;100.00;99625.31;106084;1251;61003;-87
2023/04/12 09:32:02;;;;;;;14.80;7.90;;;;;;;12.24;100.00;99621.36;106140;1250;73817;-86
2023/04/12 09:34:30;;;;;;;7.90;6.90;;;;;;;12.28;100.00;99619.95;106044;1250;64820;-84
2023/04/12 09:36:57;;;;;;;11.90;9.20;;;;;;;12.31;100.00;99615.22;105851;1251;73741;-86
2023/04/12 09:39:33;;;;;;;6.50;5.40;;;;;;;12.34;100.00;99611.45;105977;1254;63000;-86
2023/04/12 09:42:08;;;;;;;7.60;4.40;;;;;;;12.38;100.00;99612.16;106046;1251;61439;-85
2023/04/12 09:44:53;;;;;;;10.00;4.50;;;;;;;12.41;100.00;99608.92;106064;1250;73050;-85
2023/04/12 09:47:20;;;;;;;4.70;4.10;;;;;;;12.44;100.00;99606.75;106220;1253;64781;-84
2023/04/12 09:49:48;;;;;;;4.80;4.30;;;;;;;12.44;100.00;99604.98;106087;1251;73400;-85
2023/04/12 09:52:17;;;;;;;5.70;5.00;;;;;;;12.45;100.00;99605.45;105964;1254;62072;-86
2023/04/12 09:54:45;;;;;;;8.70;6.70;;;;;;;12.48;100.00;99602.04;105925;1250;61101;-85
2023/04/12 09:57:12;;;;;;;10.30;5.70;;;;;;;12.47;100.00;99604.75;106012;1250;74160;-86
2023/04/12 09:59:40;;;;;;;10.00;6.50;;;;;;;12.46;100.00;99607.80;106157;1250;64893;-84
2023/04/12 10:02:17;;;;;;;8.80;5.40;;;;;;;12.44;100.00;99600.19;105956;1250;72496;-86
2023/04/12 10:04:47;;;;;;;6.70;5.10;;;;;;;12.46;100.00;99600.23;106073;1250;63068;-86
2023/04/12 10:07:14;;;;;;;5.60;5.00;;;;;;;12.50;100.00;99603.27;106036;1256;60922;-85
2023/04/12 10:09:43;;;;;;;7.20;5.60;;;;;;;12.50;100.00;99602.71;107713;1250;73998;-84
2023/04/12 10:12:10;;;;;;;15.40;11.70;;;;;;;12.46;100.00;99601.17;107065;1254;64211;-86
2023/04/12 10:14:37;;;;;;;17.70;13.90;;;;;;;12.46;100.00;99604.52;106317;1254;73582;-87
2023/04/12 10:17:06;;;;;;;17.50;12.30;;;;;;;12.44;100.00;99598.54;106046;1254;62644;-86
2023/04/12 10:19:35;;;;;;;14.00;11.40;;;;;;;12.49;100.00;99603.73;105777;1251;61443;-87
2023/04/12 10:22:01;;;;;;;12.50;10.90;;;;;;;12.55;100.00;99597.96;106039;1255;74045;-86
2023/04/12 10:24:30;;;;;;;11.70;9.80;;;;;;;12.57;100.00;99596.67;105966;1254;64157;-85
2023/04/12 10:27:01;;;;;;;11.20;10.00;;;;;;;12.59;100.00;99596.02;105932;1250;73926;-85
2023/04/12 10:29:35;;;;;;;9.50;7.60;;;;;;;12.59;100.00;99591.45;106020;1254;63749;-84
2023/04/12 10:32:22;;;;;;;9.10;7.80;;;;;;;12.59;100.00;99588.93;105922;1250;60052;-87
2023/04/12 10:34:59;;;;;;;7.60;6.80;;;;;;;12.60;100.00;99592.42;105986;1250;72943;-85
2023/04/12 10:38:01;;;;;;;16.40;10.20;;;;;;;12.60;100.00;99591.33;106020;1254;64639;-86
2023/04/12 10:40:32;;;;;;;11.40;10.30;;;;;;;12.61;100.00;99590.92;106060;1254;73759;-85
2023/04/12 10:43:21;;;;;;;11.50;10.30;;;;;;;12.63;100.00;99593.16;105969;1251;63161;-86
2023/04/12 10:45:48;;;;;;;14.00;9.70;;;;;;;12.63;100.00;99589.37;106105;1254;60332;-84
2023/04/12 10:48:38;;;;;;;10.70;8.60;;;;;;;12.61;100.00;99590.02;105975;1254;74162;-86
2023/04/12 10:51:24;;;;;;;10.30;9.30;;;;;;;12.59;100.00;99595.13;106096;1250;64815;-85
2023/04/12 10:54:12;;;;;;;15.80;10.40;;;;;;;12.52;100.00;99589.77;106268;1250;73680;-88
2023/04/12 10:56:43;;;;;;;15.00;13.20;;;;;;;12.43;100.00;99581.20;106021;1250;62757;-85
2023/04/12 10:59:56;;;;;;;17.50;14.50;;;;;;;12.39;100.00;99578.94;105788;1250;61401;-87
2023/04/12 11:02:23;;;;;;;17.30;13.60;;;;;;;12.36;100.00;99577.62;107070;1250;73400;-83
2023/04/12 11:05:09;;;;;;;12.60;11.30;;;;;;;12.34;100.00;99570.75;106306;1250;65095;-85
2023/04/12 11:07:55;;;;;;;16.60;10.70;;;;;;;12.35;100.00;99561.26;106008;1254;73583;-85
2023/04/12 11:10:39;;;;;;;18.30;14.40;;;;;;;12.31;100.00;99553.17;106064;1250;61952;-85
2023/04/12 11:13:08;;;;;;;15.00;12.40;;;;;;;12.30;100.00;99549.93;107210;1250;61279;-83
2023/04/12 11:15:41;;;;;;;18.10;14.90;;;;;;;12.33;100.00;99548.57;107900;1250;73357;-84
2023/04/12 11:18:12;;;;;;;17.00;14.60;;;;;;;12.40;100.00;99553.21;106641;1254;63655;-84
2023/04/12 11:20:39;;;;;;;15.80;14.30;;;;;;;12.48;100.00;99551.00;106810;1250;73724;-87
2023/04/12 11:23:07;;;;;;;15.40;13.70;;;;;;;12.54;100.00;99557.73;106246;1254;61898;-87
2023/04/12 11:25:39;;;;;;;17.60;13.10;;;;;;;12.56;100.00;99559.64;106182;1250;61183;-88
2023/04/12 11:28:07;;;;;;;17.30;13.50;;;;;;;12.59;100.00;99566.02;106064;1254;74957;-86
2023/04/12 11:30:54;;;;;;;25.50;17.40;;;;;;;12.63;100.00;99565.65;106047;1252;65133;-85
2023/04/12 11:33:37;;;;;;;28.50;23.00;;;;;;;12.64;100.00;99570.33;106089;1254;72677;-87
2023/04/12 11:36:06;;;;;;;36.40;27.00;;;;;;;12.63;100.00;99576.69;106019;1250;60636;-87
2023/04/12 11:38:34;;;;;;;28.30;22.50;;;;;;;12.61;100.00;99568.52;106000;1250;60990;-85